sensor_id;sensor_type;location;lat;lon;timestamp;P1;durP1;ratioP1;P2;durP2;ratioP2
1831;SDS011;1680;48.106;11.708;2023-01-31T00:01:18;3.70;;;3.05;;
1831;SDS011;1680;48.106;11.708;2023-01-31T00:03:51;6.38;;;3.30;;
1831;SDS011;1680;48.106;11.708;2023-01-31T00:06:20;5.85;;;3.53;;
1831;SDS011;1680;48.106;11.708;2023-01-31T00:08:49;8.07;;;3.92;;
1831;SDS011;1680;48.106;11.708;2023-01-31T00:11:17;4.70;;;3.40;;
1831;SDS011;1680;48.106;11.708;2023-01-31T00:13:46;7.45;;;3.50;;
1831;SDS011;1680;48.106;11.708;2023-01-31T00:16:14;4.95;;;3.38;;
1831;SDS011;1680;48.106;11.708;2023-01-31T00:18:42;7.70;;;3.40;;
1831;SDS011;1680;48.106;11.708;2023-01-31T00:21:12;9.38;;;4.05;;
1831;SDS011;1680;48.106;11.708;2023-01-31T00:23:42;4.82;;;3.90;;
1831;SDS011;1680;48.106;11.708;2023-01-31T00:26:11;4.70;;;3.75;;
1831;SDS011;1680;48.106;11.708;2023-01-31T00:28:39;6.78;;;4.00;;
1831;SDS011;1680;48.106;11.708;2023-01-31T00:31:08;4.68;;;3.60;;
1831;SDS011;1680;48.106;11.708;2023-01-31T00:33:36;5.15;;;3.60;;
1831;SDS011;1680;48.106;11.708;2023-01-31T00:36:05;8.68;;;4.00;;
1831;SDS011;1680;48.106;11.708;2023-01-31T00:38:35;3.83;;;3.40;;
1831;SDS011;1680;48.106;11.708;2023-01-31T00:41:03;4.70;;;3.60;;
1831;SDS011;1680;48.106;11.708;2023-01-31T00:43:31;7.60;;;3.83;;
1831;SDS011;1680;48.106;11.708;2023-01-31T00:45:58;6.28;;;4.00;;
1831;SDS011;1680;48.106;11.708;2023-01-31T00:48:26;7.60;;;4.15;;
1831;SDS011;1680;48.106;11.708;2023-01-31T00:50:54;6.40;;;3.35;;
1831;SDS011;1680;48.106;11.708;2023-01-31T00:53:21;5.25;;;3.22;;
1831;SDS011;1680;48.106;11.708;2023-01-31T00:55:51;7.35;;;4.00;;
1831;SDS011;1680;48.106;11.708;2023-01-31T00:58:20;5.78;;;3.38;;
1831;SDS011;1680;48.106;11.708;2023-01-31T01:00:48;7.13;;;3.95;;
1831;SDS011;1680;48.106;11.708;2023-01-31T01:03:15;4.15;;;3.63;;
1831;SDS011;1680;48.106;11.708;2023-01-31T01:05:43;5.00;;;3.70;;
1831;SDS011;1680;48.106;11.708;2023-01-31T01:08:10;5.03;;;4.07;;
1831;SDS011;1680;48.106;11.708;2023-01-31T01:10:37;5.55;;;3.80;;
1831;SDS011;1680;48.106;11.708;2023-01-31T01:13:06;4.82;;;3.55;;
1831;SDS011;1680;48.106;11.708;2023-01-31T01:15:35;5.50;;;3.45;;
1831;SDS011;1680;48.106;11.708;2023-01-31T01:18:04;7.22;;;4.15;;
1831;SDS011;1680;48.106;11.708;2023-01-31T01:20:33;4.60;;;3.42;;
1831;SDS011;1680;48.106;11.708;2023-01-31T01:23:01;5.60;;;3.95;;
1831;SDS011;1680;48.106;11.708;2023-01-31T01:25:29;5.25;;;4.72;;
1831;SDS011;1680;48.106;11.708;2023-01-31T01:27:57;7.20;;;4.13;;
1831;SDS011;1680;48.106;11.708;2023-01-31T01:30:25;5.70;;;4.03;;
1831;SDS011;1680;48.106;11.708;2023-01-31T01:32:53;5.35;;;3.80;;
1831;SDS011;1680;48.106;11.708;2023-01-31T01:35:21;5.28;;;3.83;;
1831;SDS011;1680;48.106;11.708;2023-01-31T01:37:48;7.25;;;4.03;;
1831;SDS011;1680;48.106;11.708;2023-01-31T01:40:16;4.13;;;3.72;;
1831;SDS011;1680;48.106;11.708;2023-01-31T01:42:43;6.45;;;4.10;;
1831;SDS011;1680;48.106;11.708;2023-01-31T01:45:11;6.85;;;4.15;;
1831;SDS011;1680;48.106;11.708;2023-01-31T01:47:44;6.10;;;4.10;;
1831;SDS011;1680;48.106;11.708;2023-01-31T01:50:15;6.75;;;3.85;;
1831;SDS011;1680;48.106;11.708;2023-01-31T01:52:46;5.00;;;4.28;;
1831;SDS011;1680;48.106;11.708;2023-01-31T01:55:18;7.45;;;4.35;;
1831;SDS011;1680;48.106;11.708;2023-01-31T01:57:50;6.38;;;4.15;;
1831;SDS011;1680;48.106;11.708;2023-01-31T02:00:21;5.43;;;4.05;;
1831;SDS011;1680;48.106;11.708;2023-01-31T02:02:52;5.90;;;4.18;;
1831;SDS011;1680;48.106;11.708;2023-01-31T02:05:23;4.82;;;4.00;;
1831;SDS011;1680;48.106;11.708;2023-01-31T02:07:54;4.85;;;4.15;;
1831;SDS011;1680;48.106;11.708;2023-01-31T02:10:23;5.57;;;3.85;;
1831;SDS011;1680;48.106;11.708;2023-01-31T02:12:56;7.03;;;3.97;;
1831;SDS011;1680;48.106;11.708;2023-01-31T02:15:24;6.50;;;4.88;;
1831;SDS011;1680;48.106;11.708;2023-01-31T02:17:53;5.28;;;4.15;;
1831;SDS011;1680;48.106;11.708;2023-01-31T02:20:32;4.97;;;4.03;;
1831;SDS011;1680;48.106;11.708;2023-01-31T02:23:22;6.85;;;4.03;;
1831;SDS011;1680;48.106;11.708;2023-01-31T02:29:33;8.23;;;4.68;;
1831;SDS011;1680;48.106;11.708;2023-01-31T02:35:17;5.55;;;4.45;;
1831;SDS011;1680;48.106;11.708;2023-01-31T02:37:58;6.53;;;4.10;;
1831;SDS011;1680;48.106;11.708;2023-01-31T02:40:34;7.03;;;4.30;;
1831;SDS011;1680;48.106;11.708;2023-01-31T02:43:08;5.05;;;3.95;;
1831;SDS011;1680;48.106;11.708;2023-01-31T02:45:50;5.57;;;4.28;;
1831;SDS011;1680;48.106;11.708;2023-01-31T02:48:26;5.35;;;3.90;;
1831;SDS011;1680;48.106;11.708;2023-01-31T02:51:03;4.40;;;3.65;;
1831;SDS011;1680;48.106;11.708;2023-01-31T02:53:35;5.15;;;4.63;;
1831;SDS011;1680;48.106;11.708;2023-01-31T02:56:08;5.65;;;4.25;;
1831;SDS011;1680;48.106;11.708;2023-01-31T02:58:46;10.38;;;3.92;;
1831;SDS011;1680;48.106;11.708;2023-01-31T03:01:21;5.70;;;3.58;;
1831;SDS011;1680;48.106;11.708;2023-01-31T03:03:54;5.88;;;3.95;;
1831;SDS011;1680;48.106;11.708;2023-01-31T03:06:45;5.75;;;3.60;;
1831;SDS011;1680;48.106;11.708;2023-01-31T03:09:27;6.90;;;3.80;;
1831;SDS011;1680;48.106;11.708;2023-01-31T03:15:09;6.68;;;4.25;;
1831;SDS011;1680;48.106;11.708;2023-01-31T03:17:53;3.88;;;3.50;;
1831;SDS011;1680;48.106;11.708;2023-01-31T03:20:26;5.13;;;3.83;;
1831;SDS011;1680;48.106;11.708;2023-01-31T03:22:57;6.30;;;4.57;;
1831;SDS011;1680;48.106;11.708;2023-01-31T03:25:28;7.43;;;4.35;;
1831;SDS011;1680;48.106;11.708;2023-01-31T03:28:01;8.05;;;4.05;;
1831;SDS011;1680;48.106;11.708;2023-01-31T03:30:33;10.85;;;5.30;;
1831;SDS011;1680;48.106;11.708;2023-01-31T03:33:07;6.07;;;3.90;;
1831;SDS011;1680;48.106;11.708;2023-01-31T03:35:40;5.05;;;3.25;;
1831;SDS011;1680;48.106;11.708;2023-01-31T03:38:14;8.68;;;3.92;;
1831;SDS011;1680;48.106;11.708;2023-01-31T03:40:45;5.78;;;3.80;;
1831;SDS011;1680;48.106;11.708;2023-01-31T03:43:20;5.65;;;3.60;;
1831;SDS011;1680;48.106;11.708;2023-01-31T03:45:52;4.35;;;3.33;;
1831;SDS011;1680;48.106;11.708;2023-01-31T03:48:25;4.60;;;3.45;;
1831;SDS011;1680;48.106;11.708;2023-01-31T03:50:57;7.10;;;4.05;;
1831;SDS011;1680;48.106;11.708;2023-01-31T03:53:28;7.28;;;4.55;;
1831;SDS011;1680;48.106;11.708;2023-01-31T03:56:00;6.03;;;3.70;;
1831;SDS011;1680;48.106;11.708;2023-01-31T03:58:30;8.93;;;4.20;;
1831;SDS011;1680;48.106;11.708;2023-01-31T04:01:04;5.72;;;4.22;;
1831;SDS011;1680;48.106;11.708;2023-01-31T04:03:35;5.28;;;3.85;;
1831;SDS011;1680;48.106;11.708;2023-01-31T04:06:06;5.75;;;4.03;;
1831;SDS011;1680;48.106;11.708;2023-01-31T04:08:35;4.63;;;3.50;;
1831;SDS011;1680;48.106;11.708;2023-01-31T04:11:03;5.65;;;4.80;;
1831;SDS011;1680;48.106;11.708;2023-01-31T04:13:31;7.13;;;4.72;;
1831;SDS011;1680;48.106;11.708;2023-01-31T04:15:59;6.72;;;4.50;;
1831;SDS011;1680;48.106;11.708;2023-01-31T04:18:26;4.95;;;3.97;;
1831;SDS011;1680;48.106;11.708;2023-01-31T04:20:53;6.78;;;4.05;;
1831;SDS011;1680;48.106;11.708;2023-01-31T04:23:22;6.15;;;3.40;;
1831;SDS011;1680;48.106;11.708;2023-01-31T04:25:51;8.50;;;3.67;;
1831;SDS011;1680;48.106;11.708;2023-01-31T04:28:19;4.30;;;3.63;;
1831;SDS011;1680;48.106;11.708;2023-01-31T04:30:50;8.15;;;4.20;;
1831;SDS011;1680;48.106;11.708;2023-01-31T04:33:18;9.80;;;3.97;;
1831;SDS011;1680;48.106;11.708;2023-01-31T04:35:46;5.20;;;3.97;;
1831;SDS011;1680;48.106;11.708;2023-01-31T04:38:13;4.65;;;3.90;;
1831;SDS011;1680;48.106;11.708;2023-01-31T04:40:42;5.63;;;4.70;;
1831;SDS011;1680;48.106;11.708;2023-01-31T04:43:09;5.45;;;3.97;;
1831;SDS011;1680;48.106;11.708;2023-01-31T04:45:37;5.07;;;3.55;;
1831;SDS011;1680;48.106;11.708;2023-01-31T04:48:05;4.30;;;3.90;;
1831;SDS011;1680;48.106;11.708;2023-01-31T04:50:32;6.95;;;3.40;;
1831;SDS011;1680;48.106;11.708;2023-01-31T04:53:00;6.07;;;4.03;;
1831;SDS011;1680;48.106;11.708;2023-01-31T04:55:27;4.85;;;3.70;;
1831;SDS011;1680;48.106;11.708;2023-01-31T04:57:56;6.95;;;3.40;;
1831;SDS011;1680;48.106;11.708;2023-01-31T05:00:23;6.10;;;4.00;;
1831;SDS011;1680;48.106;11.708;2023-01-31T05:02:51;6.63;;;3.65;;
1831;SDS011;1680;48.106;11.708;2023-01-31T05:05:19;7.80;;;4.25;;
1831;SDS011;1680;48.106;11.708;2023-01-31T05:07:46;5.30;;;3.92;;
1831;SDS011;1680;48.106;11.708;2023-01-31T05:10:13;6.35;;;3.97;;
1831;SDS011;1680;48.106;11.708;2023-01-31T05:12:42;6.95;;;3.92;;
1831;SDS011;1680;48.106;11.708;2023-01-31T05:15:11;6.40;;;3.90;;
1831;SDS011;1680;48.106;11.708;2023-01-31T05:17:38;8.10;;;4.20;;
1831;SDS011;1680;48.106;11.708;2023-01-31T05:20:06;5.97;;;3.97;;
1831;SDS011;1680;48.106;11.708;2023-01-31T05:22:34;5.93;;;4.72;;
1831;SDS011;1680;48.106;11.708;2023-01-31T05:25:01;4.13;;;3.70;;
1831;SDS011;1680;48.106;11.708;2023-01-31T05:27:29;7.05;;;4.22;;
1831;SDS011;1680;48.106;11.708;2023-01-31T05:29:56;8.05;;;3.90;;
1831;SDS011;1680;48.106;11.708;2023-01-31T05:32:26;6.28;;;3.90;;
1831;SDS011;1680;48.106;11.708;2023-01-31T05:34:53;6.75;;;3.70;;
1831;SDS011;1680;48.106;11.708;2023-01-31T05:37:20;5.72;;;3.55;;
1831;SDS011;1680;48.106;11.708;2023-01-31T05:39:47;6.90;;;4.30;;
1831;SDS011;1680;48.106;11.708;2023-01-31T05:42:15;7.45;;;4.78;;
1831;SDS011;1680;48.106;11.708;2023-01-31T05:44:42;6.07;;;3.83;;
1831;SDS011;1680;48.106;11.708;2023-01-31T05:47:09;5.40;;;3.75;;
1831;SDS011;1680;48.106;11.708;2023-01-31T05:49:38;10.45;;;3.90;;
1831;SDS011;1680;48.106;11.708;2023-01-31T05:52:05;6.70;;;3.92;;
1831;SDS011;1680;48.106;11.708;2023-01-31T05:54:32;6.55;;;4.38;;
1831;SDS011;1680;48.106;11.708;2023-01-31T05:57:00;6.35;;;3.42;;
1831;SDS011;1680;48.106;11.708;2023-01-31T05:59:27;5.80;;;3.95;;
1831;SDS011;1680;48.106;11.708;2023-01-31T06:01:57;3.63;;;3.28;;
1831;SDS011;1680;48.106;11.708;2023-01-31T06:04:24;10.07;;;3.85;;
1831;SDS011;1680;48.106;11.708;2023-01-31T06:06:53;6.60;;;4.03;;
1831;SDS011;1680;48.106;11.708;2023-01-31T06:09:20;4.57;;;3.80;;
1831;SDS011;1680;48.106;11.708;2023-01-31T06:11:47;6.32;;;3.42;;
1831;SDS011;1680;48.106;11.708;2023-01-31T06:14:15;7.55;;;3.95;;
1831;SDS011;1680;48.106;11.708;2023-01-31T06:16:42;5.00;;;3.88;;
1831;SDS011;1680;48.106;11.708;2023-01-31T06:19:10;5.13;;;4.20;;
1831;SDS011;1680;48.106;11.708;2023-01-31T06:21:37;7.40;;;3.72;;
1831;SDS011;1680;48.106;11.708;2023-01-31T06:24:06;5.80;;;3.63;;
1831;SDS011;1680;48.106;11.708;2023-01-31T06:26:34;3.53;;;3.05;;
1831;SDS011;1680;48.106;11.708;2023-01-31T06:29:01;10.88;;;4.80;;
1831;SDS011;1680;48.106;11.708;2023-01-31T06:31:28;6.40;;;3.60;;
1831;SDS011;1680;48.106;11.708;2023-01-31T06:33:55;5.60;;;3.47;;
1831;SDS011;1680;48.106;11.708;2023-01-31T06:36:23;4.30;;;3.38;;
1831;SDS011;1680;48.106;11.708;2023-01-31T06:38:50;4.55;;;3.50;;
1831;SDS011;1680;48.106;11.708;2023-01-31T06:41:20;8.77;;;4.50;;
1831;SDS011;1680;48.106;11.708;2023-01-31T06:43:48;8.50;;;3.88;;
1831;SDS011;1680;48.106;11.708;2023-01-31T06:46:15;5.30;;;3.30;;
1831;SDS011;1680;48.106;11.708;2023-01-31T06:48:43;5.70;;;3.65;;
1831;SDS011;1680;48.106;11.708;2023-01-31T06:51:11;6.55;;;4.15;;
1831;SDS011;1680;48.106;11.708;2023-01-31T06:53:38;5.10;;;3.10;;
1831;SDS011;1680;48.106;11.708;2023-01-31T06:56:06;6.13;;;3.53;;
1831;SDS011;1680;48.106;11.708;2023-01-31T06:58:35;7.22;;;3.60;;
1831;SDS011;1680;48.106;11.708;2023-01-31T07:01:04;6.43;;;2.95;;
1831;SDS011;1680;48.106;11.708;2023-01-31T07:03:34;6.55;;;3.25;;
1831;SDS011;1680;48.106;11.708;2023-01-31T07:06:02;7.60;;;3.38;;
1831;SDS011;1680;48.106;11.708;2023-01-31T07:08:30;3.35;;;3.03;;
1831;SDS011;1680;48.106;11.708;2023-01-31T07:10:57;4.18;;;3.05;;
1831;SDS011;1680;48.106;11.708;2023-01-31T07:13:25;5.88;;;3.40;;
1831;SDS011;1680;48.106;11.708;2023-01-31T07:15:55;4.72;;;3.10;;
1831;SDS011;1680;48.106;11.708;2023-01-31T07:18:22;6.60;;;3.38;;
1831;SDS011;1680;48.106;11.708;2023-01-31T07:20:50;7.55;;;3.47;;
1831;SDS011;1680;48.106;11.708;2023-01-31T07:23:17;6.78;;;3.25;;
1831;SDS011;1680;48.106;11.708;2023-01-31T07:25:44;5.75;;;3.90;;
1831;SDS011;1680;48.106;11.708;2023-01-31T07:28:11;7.00;;;3.83;;
1831;SDS011;1680;48.106;11.708;2023-01-31T07:30:38;6.00;;;3.47;;
1831;SDS011;1680;48.106;11.708;2023-01-31T07:33:09;8.07;;;3.65;;
1831;SDS011;1680;48.106;11.708;2023-01-31T07:35:36;5.47;;;3.55;;
1831;SDS011;1680;48.106;11.708;2023-01-31T07:38:04;6.60;;;3.67;;
1831;SDS011;1680;48.106;11.708;2023-01-31T07:40:31;5.20;;;3.80;;
1831;SDS011;1680;48.106;11.708;2023-01-31T07:42:58;8.10;;;3.67;;
1831;SDS011;1680;48.106;11.708;2023-01-31T07:45:26;6.88;;;3.70;;
1831;SDS011;1680;48.106;11.708;2023-01-31T07:47:55;6.20;;;3.42;;
1831;SDS011;1680;48.106;11.708;2023-01-31T07:50:25;6.63;;;3.92;;
1831;SDS011;1680;48.106;11.708;2023-01-31T07:52:52;4.15;;;3.25;;
1831;SDS011;1680;48.106;11.708;2023-01-31T07:55:20;6.38;;;3.80;;
1831;SDS011;1680;48.106;11.708;2023-01-31T07:57:47;8.40;;;3.70;;
1831;SDS011;1680;48.106;11.708;2023-01-31T08:00:14;9.52;;;3.72;;
1831;SDS011;1680;48.106;11.708;2023-01-31T08:03:00;5.82;;;3.65;;
1831;SDS011;1680;48.106;11.708;2023-01-31T08:05:57;6.43;;;3.40;;
1831;SDS011;1680;48.106;11.708;2023-01-31T08:08:25;5.60;;;3.28;;
1831;SDS011;1680;48.106;11.708;2023-01-31T08:10:52;8.32;;;3.80;;
1831;SDS011;1680;48.106;11.708;2023-01-31T08:13:19;5.95;;;3.50;;
1831;SDS011;1680;48.106;11.708;2023-01-31T08:15:47;6.45;;;3.63;;
1831;SDS011;1680;48.106;11.708;2023-01-31T08:18:17;6.47;;;4.30;;
1831;SDS011;1680;48.106;11.708;2023-01-31T08:20:44;10.55;;;3.55;;
1831;SDS011;1680;48.106;11.708;2023-01-31T08:23:13;6.68;;;3.20;;
1831;SDS011;1680;48.106;11.708;2023-01-31T08:25:40;5.10;;;3.05;;
1831;SDS011;1680;48.106;11.708;2023-01-31T08:28:07;6.22;;;3.10;;
1831;SDS011;1680;48.106;11.708;2023-01-31T08:30:38;6.82;;;3.80;;
1831;SDS011;1680;48.106;11.708;2023-01-31T08:33:06;8.07;;;3.78;;
1831;SDS011;1680;48.106;11.708;2023-01-31T08:35:34;3.97;;;3.00;;
1831;SDS011;1680;48.106;11.708;2023-01-31T08:38:01;5.20;;;3.45;;
1831;SDS011;1680;48.106;11.708;2023-01-31T08:40:30;8.02;;;3.15;;
1831;SDS011;1680;48.106;11.708;2023-01-31T08:42:58;4.40;;;3.25;;
1831;SDS011;1680;48.106;11.708;2023-01-31T08:45:26;5.65;;;3.33;;
1831;SDS011;1680;48.106;11.708;2023-01-31T08:47:53;7.13;;;3.40;;
1831;SDS011;1680;48.106;11.708;2023-01-31T08:50:21;8.32;;;3.47;;
1831;SDS011;1680;48.106;11.708;2023-01-31T08:52:52;5.40;;;3.00;;
1831;SDS011;1680;48.106;11.708;2023-01-31T08:55:19;7.13;;;3.63;;
1831;SDS011;1680;48.106;11.708;2023-01-31T08:57:48;7.60;;;3.45;;
1831;SDS011;1680;48.106;11.708;2023-01-31T09:00:16;5.28;;;3.05;;
1831;SDS011;1680;48.106;11.708;2023-01-31T09:02:46;6.15;;;3.67;;
1831;SDS011;1680;48.106;11.708;2023-01-31T09:05:17;8.77;;;3.58;;
1831;SDS011;1680;48.106;11.708;2023-01-31T09:07:44;4.70;;;2.70;;
1831;SDS011;1680;48.106;11.708;2023-01-31T09:10:11;8.25;;;3.25;;
1831;SDS011;1680;48.106;11.708;2023-01-31T09:12:38;6.25;;;3.05;;
1831;SDS011;1680;48.106;11.708;2023-01-31T09:15:08;4.75;;;2.83;;
1831;SDS011;1680;48.106;11.708;2023-01-31T09:17:35;6.28;;;2.80;;
1831;SDS011;1680;48.106;11.708;2023-01-31T09:20:04;7.68;;;2.88;;
1831;SDS011;1680;48.106;11.708;2023-01-31T09:22:33;10.38;;;3.90;;
1831;SDS011;1680;48.106;11.708;2023-01-31T09:25:00;3.65;;;2.60;;
1831;SDS011;1680;48.106;11.708;2023-01-31T09:27:28;5.28;;;2.95;;
1831;SDS011;1680;48.106;11.708;2023-01-31T09:29:56;7.20;;;2.85;;
1831;SDS011;1680;48.106;11.708;2023-01-31T09:32:24;6.90;;;3.20;;
1831;SDS011;1680;48.106;11.708;2023-01-31T09:34:51;6.20;;;3.17;;
1831;SDS011;1680;48.106;11.708;2023-01-31T09:37:18;6.00;;;3.15;;
1831;SDS011;1680;48.106;11.708;2023-01-31T09:39:46;9.70;;;3.10;;
1831;SDS011;1680;48.106;11.708;2023-01-31T09:42:16;8.48;;;3.10;;
1831;SDS011;1680;48.106;11.708;2023-01-31T09:44:50;9.48;;;3.35;;
1831;SDS011;1680;48.106;11.708;2023-01-31T09:47:26;12.50;;;2.67;;
1831;SDS011;1680;48.106;11.708;2023-01-31T09:49:56;6.20;;;2.55;;
1831;SDS011;1680;48.106;11.708;2023-01-31T09:52:26;4.05;;;2.55;;
1831;SDS011;1680;48.106;11.708;2023-01-31T09:54:56;5.47;;;2.90;;
1831;SDS011;1680;48.106;11.708;2023-01-31T09:57:25;4.82;;;2.65;;
1831;SDS011;1680;48.106;11.708;2023-01-31T10:00:10;5.43;;;2.85;;
1831;SDS011;1680;48.106;11.708;2023-01-31T10:05:44;6.75;;;2.80;;
1831;SDS011;1680;48.106;11.708;2023-01-31T10:08:16;4.72;;;2.80;;
1831;SDS011;1680;48.106;11.708;2023-01-31T10:10:50;6.28;;;3.35;;
1831;SDS011;1680;48.106;11.708;2023-01-31T10:13:22;4.28;;;3.10;;
1831;SDS011;1680;48.106;11.708;2023-01-31T10:15:56;7.45;;;3.10;;
1831;SDS011;1680;48.106;11.708;2023-01-31T10:18:31;7.63;;;3.10;;
1831;SDS011;1680;48.106;11.708;2023-01-31T10:21:03;6.43;;;2.58;;
1831;SDS011;1680;48.106;11.708;2023-01-31T10:23:35;4.47;;;2.35;;
1831;SDS011;1680;48.106;11.708;2023-01-31T10:26:08;4.78;;;2.15;;
1831;SDS011;1680;48.106;11.708;2023-01-31T10:28:40;4.72;;;2.20;;
1831;SDS011;1680;48.106;11.708;2023-01-31T10:31:15;4.93;;;2.60;;
1831;SDS011;1680;48.106;11.708;2023-01-31T10:33:55;4.72;;;2.38;;
1831;SDS011;1680;48.106;11.708;2023-01-31T10:36:27;4.65;;;2.63;;
1831;SDS011;1680;48.106;11.708;2023-01-31T10:39:01;6.43;;;2.40;;
1831;SDS011;1680;48.106;11.708;2023-01-31T10:41:38;4.97;;;2.50;;
1831;SDS011;1680;48.106;11.708;2023-01-31T10:44:14;10.48;;;2.97;;
1831;SDS011;1680;48.106;11.708;2023-01-31T10:46:47;7.22;;;2.40;;
1831;SDS011;1680;48.106;11.708;2023-01-31T10:49:18;6.60;;;2.83;;
1831;SDS011;1680;48.106;11.708;2023-01-31T10:51:59;6.83;;;2.50;;
1831;SDS011;1680;48.106;11.708;2023-01-31T10:54:40;7.78;;;3.08;;
1831;SDS011;1680;48.106;11.708;2023-01-31T10:57:15;4.70;;;2.43;;
1831;SDS011;1680;48.106;11.708;2023-01-31T10:59:44;5.03;;;2.47;;
1831;SDS011;1680;48.106;11.708;2023-01-31T11:02:15;4.18;;;2.65;;
1831;SDS011;1680;48.106;11.708;2023-01-31T11:04:47;6.50;;;2.67;;
1831;SDS011;1680;48.106;11.708;2023-01-31T11:07:16;5.20;;;2.60;;
1831;SDS011;1680;48.106;11.708;2023-01-31T11:09:45;5.82;;;2.85;;
1831;SDS011;1680;48.106;11.708;2023-01-31T11:12:16;6.20;;;2.90;;
1831;SDS011;1680;48.106;11.708;2023-01-31T11:14:43;6.03;;;3.05;;
1831;SDS011;1680;48.106;11.708;2023-01-31T11:17:13;6.60;;;2.47;;
1831;SDS011;1680;48.106;11.708;2023-01-31T11:19:44;8.80;;;2.72;;
1831;SDS011;1680;48.106;11.708;2023-01-31T11:22:19;3.97;;;3.08;;
1831;SDS011;1680;48.106;11.708;2023-01-31T11:24:50;5.03;;;3.25;;
1831;SDS011;1680;48.106;11.708;2023-01-31T11:27:23;6.60;;;3.20;;
1831;SDS011;1680;48.106;11.708;2023-01-31T11:29:52;5.20;;;2.67;;
1831;SDS011;1680;48.106;11.708;2023-01-31T11:32:22;5.30;;;3.00;;
1831;SDS011;1680;48.106;11.708;2023-01-31T11:34:56;5.78;;;3.50;;
1831;SDS011;1680;48.106;11.708;2023-01-31T11:37:25;7.20;;;3.05;;
1831;SDS011;1680;48.106;11.708;2023-01-31T11:39:54;5.95;;;2.78;;
1831;SDS011;1680;48.106;11.708;2023-01-31T11:42:24;5.57;;;3.20;;
1831;SDS011;1680;48.106;11.708;2023-01-31T11:44:55;5.28;;;3.38;;
1831;SDS011;1680;48.106;11.708;2023-01-31T11:47:30;7.05;;;2.75;;
1831;SDS011;1680;48.106;11.708;2023-01-31T11:50:05;3.35;;;3.05;;
1831;SDS011;1680;48.106;11.708;2023-01-31T11:52:41;5.15;;;3.58;;
1831;SDS011;1680;48.106;11.708;2023-01-31T11:55:08;3.78;;;3.00;;
1831;SDS011;1680;48.106;11.708;2023-01-31T11:57:43;4.05;;;2.80;;
1831;SDS011;1680;48.106;11.708;2023-01-31T12:00:18;4.88;;;3.03;;
1831;SDS011;1680;48.106;11.708;2023-01-31T12:02:49;8.65;;;2.92;;
1831;SDS011;1680;48.106;11.708;2023-01-31T12:05:29;6.20;;;3.53;;
1831;SDS011;1680;48.106;11.708;2023-01-31T12:08:00;7.68;;;4.00;;
1831;SDS011;1680;48.106;11.708;2023-01-31T12:10:30;6.90;;;3.20;;
1831;SDS011;1680;48.106;11.708;2023-01-31T12:13:01;3.93;;;2.80;;
1831;SDS011;1680;48.106;11.708;2023-01-31T12:15:42;5.07;;;3.42;;
1831;SDS011;1680;48.106;11.708;2023-01-31T12:18:12;7.47;;;3.03;;
1831;SDS011;1680;48.106;11.708;2023-01-31T12:20:43;4.05;;;3.30;;
1831;SDS011;1680;48.106;11.708;2023-01-31T12:23:18;5.30;;;2.95;;
1831;SDS011;1680;48.106;11.708;2023-01-31T12:26:02;4.10;;;2.75;;
1831;SDS011;1680;48.106;11.708;2023-01-31T12:28:43;5.53;;;4.07;;
1831;SDS011;1680;48.106;11.708;2023-01-31T12:34:16;4.63;;;3.17;;
1831;SDS011;1680;48.106;11.708;2023-01-31T12:36:58;4.05;;;3.05;;
1831;SDS011;1680;48.106;11.708;2023-01-31T12:39:43;3.22;;;2.85;;
1831;SDS011;1680;48.106;11.708;2023-01-31T12:42:24;3.93;;;3.00;;
1831;SDS011;1680;48.106;11.708;2023-01-31T12:45:07;6.72;;;3.53;;
1831;SDS011;1680;48.106;11.708;2023-01-31T12:47:51;5.82;;;3.30;;
1831;SDS011;1680;48.106;11.708;2023-01-31T12:50:37;6.57;;;4.17;;
1831;SDS011;1680;48.106;11.708;2023-01-31T12:53:23;5.23;;;3.53;;
1831;SDS011;1680;48.106;11.708;2023-01-31T12:56:14;6.28;;;3.17;;
1831;SDS011;1680;48.106;11.708;2023-01-31T12:58:54;3.90;;;3.50;;
1831;SDS011;1680;48.106;11.708;2023-01-31T13:01:30;4.63;;;3.40;;
1831;SDS011;1680;48.106;11.708;2023-01-31T13:04:12;4.15;;;3.60;;
1831;SDS011;1680;48.106;11.708;2023-01-31T13:06:52;4.77;;;3.90;;
1831;SDS011;1680;48.106;11.708;2023-01-31T13:09:25;5.72;;;3.50;;
1831;SDS011;1680;48.106;11.708;2023-01-31T13:11:56;4.93;;;3.80;;
1831;SDS011;1680;48.106;11.708;2023-01-31T13:14:29;4.20;;;3.47;;
1831;SDS011;1680;48.106;11.708;2023-01-31T13:16:59;5.57;;;3.73;;
1831;SDS011;1680;48.106;11.708;2023-01-31T13:19:31;4.70;;;3.70;;
1831;SDS011;1680;48.106;11.708;2023-01-31T13:22:04;7.30;;;3.80;;
1831;SDS011;1680;48.106;11.708;2023-01-31T13:24:39;4.50;;;4.07;;
1831;SDS011;1680;48.106;11.708;2023-01-31T13:27:14;7.17;;;4.07;;
1831;SDS011;1680;48.106;11.708;2023-01-31T13:29:46;5.40;;;4.00;;
1831;SDS011;1680;48.106;11.708;2023-01-31T13:32:19;5.45;;;4.45;;
1831;SDS011;1680;48.106;11.708;2023-01-31T13:34:54;5.70;;;4.33;;
1831;SDS011;1680;48.106;11.708;2023-01-31T13:37:26;4.80;;;3.60;;
1831;SDS011;1680;48.106;11.708;2023-01-31T13:39:57;4.83;;;4.07;;
1831;SDS011;1680;48.106;11.708;2023-01-31T13:42:27;5.67;;;4.20;;
1831;SDS011;1680;48.106;11.708;2023-01-31T13:44:59;5.70;;;4.40;;
1831;SDS011;1680;48.106;11.708;2023-01-31T13:47:30;5.97;;;3.80;;
1831;SDS011;1680;48.106;11.708;2023-01-31T13:50:05;5.53;;;4.40;;
1831;SDS011;1680;48.106;11.708;2023-01-31T13:52:38;4.10;;;3.70;;
1831;SDS011;1680;48.106;11.708;2023-01-31T13:55:13;4.53;;;4.07;;
1831;SDS011;1680;48.106;11.708;2023-01-31T13:57:45;7.67;;;4.07;;
1831;SDS011;1680;48.106;11.708;2023-01-31T14:00:24;8.82;;;4.82;;
1831;SDS011;1680;48.106;11.708;2023-01-31T14:03:03;7.67;;;4.70;;
1831;SDS011;1680;48.106;11.708;2023-01-31T14:11:35;4.70;;;4.15;;
1831;SDS011;1680;48.106;11.708;2023-01-31T14:14:15;6.10;;;4.50;;
1831;SDS011;1680;48.106;11.708;2023-01-31T14:16:45;5.23;;;4.40;;
1831;SDS011;1680;48.106;11.708;2023-01-31T14:19:29;5.60;;;4.90;;
1831;SDS011;1680;48.106;11.708;2023-01-31T14:22:17;7.05;;;4.80;;
1831;SDS011;1680;48.106;11.708;2023-01-31T14:27:43;5.50;;;4.78;;
1831;SDS011;1680;48.106;11.708;2023-01-31T14:33:34;5.20;;;4.45;;
1831;SDS011;1680;48.106;11.708;2023-01-31T14:45:15;5.63;;;4.10;;
1831;SDS011;1680;48.106;11.708;2023-01-31T14:47:58;5.90;;;4.38;;
1831;SDS011;1680;48.106;11.708;2023-01-31T14:50:52;4.40;;;3.67;;
1831;SDS011;1680;48.106;11.708;2023-01-31T14:53:32;6.60;;;5.93;;
1831;SDS011;1680;48.106;11.708;2023-01-31T14:56:19;7.35;;;4.93;;
1831;SDS011;1680;48.106;11.708;2023-01-31T14:59:02;5.07;;;3.90;;
1831;SDS011;1680;48.106;11.708;2023-01-31T15:01:31;6.40;;;3.83;;
1831;SDS011;1680;48.106;11.708;2023-01-31T15:04:01;4.75;;;4.20;;
1831;SDS011;1680;48.106;11.708;2023-01-31T15:06:30;8.88;;;4.68;;
1831;SDS011;1680;48.106;11.708;2023-01-31T15:12:00;7.00;;;4.00;;
1831;SDS011;1680;48.106;11.708;2023-01-31T15:14:34;3.93;;;3.43;;
1831;SDS011;1680;48.106;11.708;2023-01-31T15:17:09;7.90;;;3.93;;
1831;SDS011;1680;48.106;11.708;2023-01-31T15:19:41;5.38;;;4.53;;
1831;SDS011;1680;48.106;11.708;2023-01-31T15:22:12;5.70;;;4.30;;
1831;SDS011;1680;48.106;11.708;2023-01-31T15:24:43;5.00;;;3.87;;
1831;SDS011;1680;48.106;11.708;2023-01-31T15:27:13;5.53;;;4.30;;
1831;SDS011;1680;48.106;11.708;2023-01-31T15:29:50;4.83;;;4.00;;
1831;SDS011;1680;48.106;11.708;2023-01-31T15:32:25;4.60;;;4.17;;
1831;SDS011;1680;48.106;11.708;2023-01-31T15:34:58;6.13;;;4.32;;
1831;SDS011;1680;48.106;11.708;2023-01-31T15:37:30;6.20;;;4.60;;
1831;SDS011;1680;48.106;11.708;2023-01-31T15:40:02;5.07;;;3.53;;
1831;SDS011;1680;48.106;11.708;2023-01-31T15:42:32;4.32;;;3.80;;
1831;SDS011;1680;48.106;11.708;2023-01-31T15:45:13;5.30;;;4.40;;
1831;SDS011;1680;48.106;11.708;2023-01-31T15:47:57;6.33;;;4.60;;
1831;SDS011;1680;48.106;11.708;2023-01-31T15:50:28;6.47;;;4.53;;
1831;SDS011;1680;48.106;11.708;2023-01-31T15:53:00;5.40;;;4.17;;
1831;SDS011;1680;48.106;11.708;2023-01-31T15:55:29;5.37;;;4.30;;
1831;SDS011;1680;48.106;11.708;2023-01-31T15:57:58;6.40;;;4.30;;
1831;SDS011;1680;48.106;11.708;2023-01-31T16:00:27;5.88;;;4.13;;
1831;SDS011;1680;48.106;11.708;2023-01-31T16:02:58;6.27;;;4.20;;
1831;SDS011;1680;48.106;11.708;2023-01-31T16:05:26;4.55;;;3.75;;